createdAt,value
2023-03-12T00:01:38.294Z,2.35
2023-03-12T00:04:06.966Z,3.35
2023-03-12T00:06:34.634Z,4.47
2023-03-12T00:09:04.994Z,2.73
2023-03-12T00:11:32.929Z,2.80
2023-03-12T00:14:01.367Z,2.33
2023-03-12T00:16:29.507Z,1.63
2023-03-12T00:18:57.793Z,1.42
2023-03-12T00:21:26.242Z,2.47
2023-03-12T00:23:55.011Z,2.00
2023-03-12T00:26:23.782Z,3.17
2023-03-12T00:28:52.426Z,3.05
2023-03-12T00:31:23.875Z,3.75
2023-03-12T00:33:52.044Z,3.33
2023-03-12T00:36:26.280Z,2.30
2023-03-12T00:38:55.334Z,2.38
2023-03-12T00:41:23.612Z,2.70
2023-03-12T00:43:52.619Z,1.77
2023-03-12T00:46:20.553Z,2.85
2023-03-12T00:48:49.121Z,2.83
2023-03-12T00:51:17.438Z,2.53
2023-03-12T00:53:46.950Z,4.07
2023-03-12T00:56:14.922Z,3.13
2023-03-12T01:03:26.268Z,3.60
2023-03-12T01:05:57.688Z,3.40
2023-03-12T01:08:25.569Z,2.88
2023-03-12T01:10:53.969Z,4.65
2023-03-12T01:13:22.161Z,4.78
2023-03-12T01:15:56.140Z,4.43
2023-03-12T01:18:24.183Z,2.97
2023-03-12T01:20:53.904Z,3.25
2023-03-12T01:23:21.655Z,3.05
2023-03-12T01:25:52.721Z,3.30
2023-03-12T01:28:20.579Z,3.00
2023-03-12T01:30:49.218Z,5.50
2023-03-12T01:33:18.854Z,4.90
2023-03-12T01:35:46.998Z,9.13
2023-03-12T01:38:16.890Z,9.15
2023-03-12T01:40:45.731Z,16.15
2023-03-12T01:43:31.400Z,14.55
2023-03-12T01:46:15.096Z,15.70
2023-03-12T01:48:51.093Z,9.05
2023-03-12T01:51:21.587Z,17.65
2023-03-12T01:53:52.039Z,11.93
2023-03-12T01:56:21.598Z,9.32
2023-03-12T01:58:55.609Z,4.93
2023-03-12T02:01:25.483Z,3.70
2023-03-12T02:03:56.916Z,7.78
2023-03-12T02:07:12.935Z,3.92
2023-03-12T02:09:48.468Z,4.60
2023-03-12T02:12:17.947Z,2.22
2023-03-12T02:14:45.916Z,4.85
2023-03-12T02:17:15.290Z,5.25
2023-03-12T02:20:11.358Z,13.30
2023-03-12T02:22:45.398Z,23.75
2023-03-12T02:25:27.692Z,15.93
2023-03-12T02:27:57.450Z,9.25
2023-03-12T02:30:28.020Z,21.85
2023-03-12T02:32:58.555Z,15.00
2023-03-12T02:35:26.340Z,5.28
2023-03-12T02:38:34.502Z,11.50
2023-03-12T02:41:24.500Z,5.43
2023-03-12T02:44:09.316Z,6.95
2023-03-12T02:46:47.416Z,4.32
2023-03-12T02:49:17.824Z,4.20
2023-03-12T02:51:47.468Z,4.13
2023-03-12T02:54:18.911Z,5.25
2023-03-12T02:56:47.007Z,3.90
2023-03-12T02:59:16.517Z,5.88
2023-03-12T03:01:45.616Z,5.40
2023-03-12T03:04:14.148Z,6.23
2023-03-12T03:06:44.257Z,5.20
2023-03-12T03:09:13.130Z,5.63
2023-03-12T03:11:41.736Z,4.28
2023-03-12T03:14:11.165Z,4.63
2023-03-12T03:16:39.122Z,4.50
2023-03-12T03:19:07.415Z,4.05
2023-03-12T03:21:35.639Z,3.42
2023-03-12T03:24:04.549Z,3.80
2023-03-12T03:26:32.515Z,3.80
2023-03-12T03:29:00.652Z,2.53
2023-03-12T03:31:28.853Z,3.60
2023-03-12T03:34:03.659Z,3.80
2023-03-12T03:36:32.199Z,4.75
2023-03-12T03:39:08.739Z,3.13
2023-03-12T03:41:36.637Z,6.03
2023-03-12T03:44:05.752Z,3.15
2023-03-12T03:46:38.345Z,2.90
2023-03-12T03:49:09.740Z,4.03
2023-03-12T03:51:43.153Z,9.57
2023-03-12T03:54:15.036Z,7.43
2023-03-12T03:56:44.745Z,9.45
2023-03-12T03:59:13.484Z,12.18
2023-03-12T04:01:43.445Z,17.83
2023-03-12T04:04:11.663Z,12.77
2023-03-12T04:06:40.065Z,11.52
2023-03-12T04:09:08.340Z,11.25
2023-03-12T04:11:39.292Z,13.95
2023-03-12T04:14:09.355Z,10.65
2023-03-12T04:16:40.792Z,5.75
2023-03-12T04:19:08.982Z,6.53
2023-03-12T04:21:40.640Z,5.20
2023-03-12T04:24:17.096Z,6.30
2023-03-12T04:26:45.732Z,5.22
2023-03-12T04:29:15.434Z,3.83
2023-03-12T04:31:43.805Z,3.33
2023-03-12T04:34:14.481Z,3.67
2023-03-12T04:36:47.243Z,3.03
2023-03-12T04:39:20.358Z,4.45
2023-03-12T04:41:53.769Z,4.30
2023-03-12T04:44:22.304Z,7.18
2023-03-12T04:46:50.401Z,3.30
2023-03-12T04:49:22.640Z,2.80
2023-03-12T04:51:50.676Z,4.38
2023-03-12T04:54:24.408Z,2.67
2023-03-12T04:56:52.979Z,2.92
2023-03-12T05:04:07.655Z,2.63
2023-03-12T05:06:36.414Z,5.15
2023-03-12T05:09:04.436Z,3.22
2023-03-12T05:11:33.536Z,2.92
2023-03-12T05:14:01.871Z,3.60
2023-03-12T05:16:30.942Z,5.13
2023-03-12T05:18:59.389Z,4.45
2023-03-12T05:21:28.468Z,5.00
2023-03-12T05:23:58.974Z,5.38
2023-03-12T05:26:34.294Z,6.60
2023-03-12T05:29:26.229Z,4.53
2023-03-12T05:31:55.571Z,3.65
2023-03-12T05:34:23.522Z,4.18
2023-03-12T05:36:52.454Z,6.43
2023-03-12T05:39:25.124Z,6.57
2023-03-12T05:41:57.650Z,5.72
2023-03-12T05:44:26.582Z,9.88
2023-03-12T05:46:58.848Z,6.07
2023-03-12T05:49:28.283Z,6.68
2023-03-12T05:51:57.908Z,10.55
2023-03-12T05:54:26.752Z,4.88
2023-03-12T05:56:57.281Z,5.55
2023-03-12T05:59:27.141Z,3.20
2023-03-12T06:01:57.138Z,11.18
2023-03-12T06:04:25.513Z,11.88
2023-03-12T06:06:54.687Z,5.32
2023-03-12T06:09:23.442Z,5.57
2023-03-12T06:11:51.761Z,5.38
2023-03-12T06:14:19.663Z,4.97
2023-03-12T06:16:48.552Z,6.05
2023-03-12T06:19:16.913Z,5.32
2023-03-12T06:21:48.747Z,5.35
2023-03-12T06:24:17.056Z,5.47
2023-03-12T06:26:56.266Z,9.63
2023-03-12T06:29:24.244Z,5.78
2023-03-12T06:31:52.726Z,5.30
2023-03-12T06:34:20.785Z,4.63
2023-03-12T06:36:53.476Z,4.97
2023-03-12T06:39:21.561Z,5.53
2023-03-12T06:41:49.653Z,4.93
2023-03-12T06:44:17.784Z,4.13
2023-03-12T06:46:46.075Z,4.72
2023-03-12T06:49:14.691Z,4.65
2023-03-12T06:51:42.947Z,4.70
2023-03-12T06:54:11.285Z,4.97
2023-03-12T06:56:39.823Z,7.00
2023-03-12T06:59:08.258Z,5.20
2023-03-12T07:01:36.717Z,5.78
2023-03-12T07:04:08.464Z,5.03
2023-03-12T07:06:37.022Z,5.82
2023-03-12T07:09:05.562Z,4.93
2023-03-12T07:11:37.158Z,6.55
2023-03-12T07:14:05.279Z,5.47
2023-03-12T07:16:33.603Z,4.13
2023-03-12T07:19:01.684Z,5.25
2023-03-12T07:21:33.289Z,6.00
2023-03-12T07:24:14.191Z,6.10
2023-03-12T07:26:44.648Z,5.50
2023-03-12T07:29:12.590Z,6.10
2023-03-12T07:31:40.629Z,4.70
2023-03-12T07:34:09.816Z,3.67
2023-03-12T07:36:39.185Z,5.30
2023-03-12T07:39:10.421Z,3.80
2023-03-12T07:41:39.953Z,12.37
2023-03-12T07:44:27.667Z,5.38
2023-03-12T07:47:07.065Z,4.00
2023-03-12T07:49:45.972Z,5.93
2023-03-12T07:52:18.792Z,5.38
2023-03-12T07:54:47.978Z,6.30
2023-03-12T07:57:19.028Z,4.65
2023-03-12T07:59:48.545Z,6.90
2023-03-12T08:02:17.125Z,4.43
2023-03-12T08:04:45.837Z,5.57
2023-03-12T08:07:15.185Z,4.10
2023-03-12T08:09:43.543Z,5.50
2023-03-12T08:12:11.810Z,4.43
2023-03-12T08:14:40.429Z,4.78
2023-03-12T08:17:09.979Z,7.55
2023-03-12T08:19:38.744Z,6.77
2023-03-12T08:22:07.794Z,4.32
2023-03-12T08:24:36.403Z,4.13
2023-03-12T08:27:04.454Z,5.60
2023-03-12T08:29:33.892Z,4.10
2023-03-12T08:32:05.285Z,5.50
2023-03-12T08:34:34.697Z,5.00
2023-03-12T08:37:03.333Z,6.20
2023-03-12T08:39:32.337Z,5.60
2023-03-12T08:42:00.524Z,4.97
2023-03-12T08:44:29.183Z,4.60
2023-03-12T08:46:57.219Z,3.90
2023-03-12T08:49:25.818Z,6.25
2023-03-12T08:51:53.851Z,4.05
2023-03-12T08:54:22.181Z,5.78
2023-03-12T08:56:52.458Z,4.20
2023-03-12T08:59:22.737Z,4.35
2023-03-12T09:01:51.188Z,5.18
2023-03-12T09:04:20.311Z,4.07
2023-03-12T09:06:48.346Z,4.57
2023-03-12T09:09:16.554Z,3.70
2023-03-12T09:11:44.742Z,4.22
2023-03-12T09:14:53.894Z,4.13
2023-03-12T09:17:02.694Z,4.65
2023-03-12T09:19:31.369Z,3.95
2023-03-12T09:21:59.653Z,4.43
2023-03-12T09:24:28.154Z,5.38
2023-03-12T09:26:56.338Z,4.45
2023-03-12T09:29:25.243Z,3.33
2023-03-12T09:31:53.381Z,3.63
2023-03-12T09:34:22.076Z,4.47
2023-03-12T09:36:51.238Z,4.60
2023-03-12T09:39:21.360Z,4.80
2023-03-12T09:41:50.391Z,4.75
2023-03-12T09:44:39.281Z,4.25
2023-03-12T09:47:23.960Z,4.40
2023-03-12T09:50:00.684Z,4.38
2023-03-12T09:52:38.758Z,4.60
2023-03-12T09:55:19.754Z,5.38
2023-03-12T09:57:50.911Z,6.10
2023-03-12T10:00:25.058Z,4.90
2023-03-12T10:03:06.508Z,4.03
2023-03-12T10:05:37.509Z,4.80
2023-03-12T10:08:26.427Z,4.88
2023-03-12T10:11:11.956Z,5.03
2023-03-12T10:14:02.156Z,5.83
2023-03-12T10:16:36.744Z,4.38
2023-03-12T10:19:13.743Z,9.07
2023-03-12T10:22:09.595Z,6.38
2023-03-12T10:25:12.697Z,6.30
2023-03-12T10:27:41.830Z,4.90
2023-03-12T10:30:26.165Z,7.15
2023-03-12T10:33:00.226Z,4.43
2023-03-12T10:35:32.238Z,5.35
2023-03-12T10:38:02.945Z,5.55
2023-03-12T10:40:34.840Z,8.03
2023-03-12T10:43:04.346Z,4.18
2023-03-12T10:45:37.789Z,6.35
2023-03-12T10:48:20.993Z,5.75
2023-03-12T10:51:09.833Z,9.60
2023-03-12T10:53:46.079Z,5.47
2023-03-12T10:56:19.413Z,4.78
2023-03-12T10:58:50.116Z,4.43
2023-03-12T11:01:32.334Z,4.60
2023-03-12T11:04:32.249Z,3.55
2023-03-12T11:07:13.416Z,4.10
2023-03-12T11:09:42.346Z,5.85
2023-03-12T11:12:53.218Z,8.43
2023-03-12T11:15:24.131Z,8.95
2023-03-12T11:17:52.836Z,6.57
2023-03-12T11:20:44.590Z,5.33
2023-03-12T11:23:25.660Z,4.80
2023-03-12T11:26:01.310Z,5.40
2023-03-12T11:28:37.788Z,5.22
2023-03-12T11:31:11.939Z,5.28
2023-03-12T11:33:40.120Z,5.40
2023-03-12T11:36:46.253Z,4.85
2023-03-12T11:39:30.242Z,4.18
2023-03-12T11:42:16.785Z,5.55
2023-03-12T11:45:00.892Z,4.90
2023-03-12T11:47:57.239Z,5.83
2023-03-12T11:50:48.830Z,4.47
2023-03-12T11:53:40.317Z,4.85
2023-03-12T11:56:58.492Z,5.03
2023-03-12T11:59:54.276Z,7.28
2023-03-12T12:02:39.677Z,4.87
2023-03-12T12:05:36.519Z,5.57
2023-03-12T12:08:31.228Z,5.47
2023-03-12T12:11:29.636Z,3.70
2023-03-12T12:15:02.040Z,5.80
2023-03-12T12:17:58.362Z,4.23
2023-03-12T12:20:43.513Z,5.03
2023-03-12T12:23:24.146Z,6.32
2023-03-12T12:26:29.321Z,3.72
2023-03-12T12:29:12.817Z,4.10
2023-03-12T12:31:57.059Z,6.53
2023-03-12T12:34:47.873Z,4.97
2023-03-12T12:37:46.762Z,3.85
2023-03-12T12:40:27.870Z,5.80
2023-03-12T12:43:05.746Z,5.38
2023-03-12T12:45:34.195Z,4.53
2023-03-12T12:48:23.404Z,6.43
2023-03-12T12:50:54.677Z,4.10
2023-03-12T12:53:31.859Z,5.25
2023-03-12T12:56:15.506Z,6.05
2023-03-12T12:59:06.689Z,3.87
2023-03-12T13:01:37.074Z,4.28
2023-03-12T13:04:13.138Z,8.32
2023-03-12T13:07:17.059Z,4.13
2023-03-12T13:09:50.843Z,3.75
2023-03-12T13:12:56.832Z,3.57
2023-03-12T13:15:31.110Z,4.85
2023-03-12T13:17:59.540Z,4.38
2023-03-12T13:20:40.004Z,4.53
2023-03-12T13:23:17.334Z,4.47
2023-03-12T13:26:02.223Z,5.47
2023-03-12T13:29:11.305Z,4.43
2023-03-12T13:31:43.075Z,3.75
2023-03-12T13:34:21.105Z,4.30
2023-03-12T13:36:54.301Z,4.15
2023-03-12T13:39:45.959Z,3.53
2023-03-12T13:42:39.343Z,7.07
2023-03-12T13:45:25.570Z,5.35
2023-03-12T13:47:59.386Z,6.68
2023-03-12T13:50:30.054Z,3.72
2023-03-12T13:53:15.948Z,3.33
2023-03-12T13:55:50.685Z,4.57
2023-03-12T13:58:24.026Z,4.50
2023-03-12T14:01:22.829Z,4.55
2023-03-12T14:03:57.591Z,4.20
2023-03-12T14:06:30.650Z,3.77
2023-03-12T14:09:10.647Z,5.18
2023-03-12T14:12:04.270Z,5.43
2023-03-12T14:14:55.149Z,6.00
2023-03-12T14:17:27.685Z,5.13
2023-03-12T14:20:07.818Z,5.13
2023-03-12T14:22:39.201Z,8.63
2023-03-12T14:25:27.484Z,4.43
2023-03-12T14:27:56.384Z,6.47
2023-03-12T14:30:32.135Z,4.90
2023-03-12T14:33:03.221Z,11.27
2023-03-12T14:35:41.078Z,3.72
2023-03-12T14:38:38.215Z,4.13
2023-03-12T14:41:17.127Z,4.82
2023-03-12T14:43:46.998Z,4.97
2023-03-12T14:46:23.641Z,4.10
2023-03-12T14:48:55.470Z,3.78
2023-03-12T14:51:26.522Z,4.63
2023-03-12T14:53:56.236Z,4.95
2023-03-12T14:56:33.738Z,4.53
2023-03-12T14:59:23.427Z,4.40
2023-03-12T15:01:52.552Z,4.25
2023-03-12T15:04:24.521Z,4.13
2023-03-12T15:07:06.066Z,6.32
2023-03-12T15:09:36.900Z,4.72
2023-03-12T15:12:08.294Z,6.43
2023-03-12T15:14:43.041Z,4.68
2023-03-12T15:17:20.170Z,13.90
2023-03-12T15:19:49.938Z,6.40
2023-03-12T15:22:23.708Z,7.38
2023-03-12T15:24:52.735Z,8.07
2023-03-12T15:27:28.776Z,6.07
2023-03-12T15:29:59.088Z,5.00
2023-03-12T15:32:28.460Z,4.50
2023-03-12T15:34:59.325Z,4.72
2023-03-12T15:37:41.863Z,6.77
2023-03-12T15:41:00.823Z,6.75
2023-03-12T15:43:28.784Z,6.93
2023-03-12T15:46:02.448Z,13.23
2023-03-12T15:48:41.788Z,32.63
2023-03-12T15:51:37.190Z,17.93
2023-03-12T15:54:14.382Z,13.90
2023-03-12T15:56:43.048Z,16.23
2023-03-12T15:59:16.717Z,9.27
2023-03-12T16:01:53.506Z,7.72
2023-03-12T16:04:25.066Z,6.57
2023-03-12T16:06:55.928Z,6.95
2023-03-12T16:09:26.661Z,10.02
2023-03-12T16:11:56.387Z,12.98
2023-03-12T16:14:36.619Z,6.38
2023-03-12T16:17:14.103Z,9.00
2023-03-12T16:19:42.141Z,14.00
2023-03-12T16:22:11.383Z,10.55
2023-03-12T16:24:39.283Z,14.57
2023-03-12T16:27:18.110Z,8.55
2023-03-12T16:29:49.324Z,8.90
2023-03-12T16:32:17.865Z,8.93
2023-03-12T16:34:49.093Z,15.45
2023-03-12T16:37:17.230Z,11.13
2023-03-12T16:39:46.828Z,14.98
2023-03-12T16:42:20.132Z,16.67
2023-03-12T16:44:48.649Z,14.77
2023-03-12T16:47:16.929Z,10.30
2023-03-12T16:49:45.307Z,14.85
2023-03-12T16:52:23.745Z,9.40
2023-03-12T16:54:52.805Z,35.92
2023-03-12T16:57:40.385Z,31.67
2023-03-12T17:00:16.185Z,28.02
2023-03-12T17:02:45.068Z,23.15
2023-03-12T17:05:13.723Z,24.83
2023-03-12T17:07:42.300Z,21.52
2023-03-12T17:10:11.346Z,22.33
2023-03-12T17:12:44.233Z,82.78
2023-03-12T17:18:30.901Z,43.72
2023-03-12T17:20:58.924Z,44.83
2023-03-12T17:23:27.159Z,43.72
2023-03-12T17:25:55.055Z,29.17
2023-03-12T17:28:23.305Z,30.02
2023-03-12T17:30:51.281Z,34.40
2023-03-12T17:33:20.307Z,26.55
2023-03-12T17:36:00.546Z,34.08
2023-03-12T17:38:30.682Z,24.98
2023-03-12T17:41:00.378Z,31.05
2023-03-12T17:43:28.998Z,33.75
2023-03-12T17:45:56.950Z,33.17
2023-03-12T17:48:25.387Z,54.30
2023-03-12T17:50:53.399Z,43.97
2023-03-12T17:53:21.643Z,31.95
2023-03-12T17:55:49.488Z,30.23
2023-03-12T17:58:17.657Z,25.37
2023-03-12T18:00:45.537Z,26.55
2023-03-12T18:07:26.602Z,15.68
2023-03-12T18:09:54.962Z,18.25
2023-03-12T18:12:23.508Z,21.58
2023-03-12T18:14:51.740Z,18.90
2023-03-12T18:17:20.047Z,10.13
2023-03-12T18:19:48.331Z,15.60
2023-03-12T18:22:16.273Z,15.55
2023-03-12T18:24:44.526Z,21.77
2023-03-12T18:27:12.468Z,18.08
2023-03-12T18:29:41.586Z,16.15
2023-03-12T18:32:09.663Z,25.73
2023-03-12T18:34:38.076Z,24.00
2023-03-12T18:37:05.886Z,28.48
2023-03-12T18:39:34.115Z,29.02
2023-03-12T18:42:10.077Z,27.75
2023-03-12T18:44:53.487Z,29.60
2023-03-12T18:47:21.831Z,70.95
2023-03-12T18:49:53.429Z,42.60
2023-03-12T18:52:22.535Z,37.30
2023-03-12T18:54:51.841Z,35.80
2023-03-12T18:57:20.618Z,50.17
2023-03-12T18:59:49.481Z,40.20
2023-03-12T19:02:17.911Z,54.78
2023-03-12T19:04:46.072Z,48.70
2023-03-12T19:07:14.830Z,37.70
2023-03-12T19:09:43.061Z,33.40
2023-03-12T19:12:12.083Z,31.50
2023-03-12T19:14:40.137Z,36.22
2023-03-12T19:17:08.512Z,31.85
2023-03-12T19:19:36.424Z,27.38
2023-03-12T19:22:05.101Z,26.98
2023-03-12T19:24:33.248Z,24.45
2023-03-12T19:27:01.940Z,22.20
2023-03-12T19:29:29.951Z,28.27
2023-03-12T19:31:58.212Z,25.63
2023-03-12T19:34:26.211Z,21.67
2023-03-12T19:36:54.826Z,27.17
2023-03-12T19:39:23.115Z,27.20
2023-03-12T19:41:52.883Z,40.17
2023-03-12T19:44:21.005Z,38.08
2023-03-12T19:46:49.731Z,36.13
2023-03-12T19:49:17.898Z,35.92
2023-03-12T19:51:46.093Z,25.33
2023-03-12T19:54:14.124Z,25.77
2023-03-12T19:56:48.348Z,17.77
2023-03-12T20:00:13.506Z,19.70
2023-03-12T20:02:41.886Z,22.85
2023-03-12T20:05:10.581Z,17.83
2023-03-12T20:07:40.777Z,25.80
2023-03-12T20:10:13.672Z,24.90
2023-03-12T20:12:42.315Z,23.92
2023-03-12T20:15:11.798Z,22.02
2023-03-12T20:17:40.053Z,15.63
2023-03-12T20:20:09.339Z,14.10
2023-03-12T20:22:39.806Z,13.65
2023-03-12T20:25:07.954Z,15.45
2023-03-12T20:27:36.211Z,12.77
2023-03-12T20:30:04.832Z,13.43
2023-03-12T20:32:33.152Z,12.82
2023-03-12T20:35:01.153Z,15.23
2023-03-12T20:37:29.339Z,12.73
2023-03-12T20:39:57.259Z,14.57
2023-03-12T20:42:25.296Z,12.63
2023-03-12T20:44:57.300Z,13.13
2023-03-12T20:47:25.785Z,10.35
2023-03-12T20:49:53.683Z,11.93
2023-03-12T20:52:21.989Z,10.98
2023-03-12T20:54:50.101Z,10.95
2023-03-12T20:57:18.446Z,9.48
2023-03-12T20:59:46.232Z,9.82
2023-03-12T21:02:15.842Z,8.63
2023-03-12T21:04:44.882Z,8.18
2023-03-12T21:07:13.186Z,7.88
2023-03-12T21:09:41.111Z,7.28
2023-03-12T21:12:09.265Z,8.00
2023-03-12T21:14:40.177Z,6.22
2023-03-12T21:17:10.603Z,8.63
2023-03-12T21:19:39.057Z,8.07
2023-03-12T21:22:09.319Z,6.93
2023-03-12T21:24:38.108Z,6.75
2023-03-12T21:27:05.850Z,9.48
2023-03-12T21:29:34.136Z,7.35
2023-03-12T21:32:01.952Z,11.40
2023-03-12T21:34:30.981Z,9.93
2023-03-12T21:36:58.988Z,9.20
2023-03-12T21:39:29.710Z,7.32
2023-03-12T21:42:04.286Z,9.63
2023-03-12T21:44:35.895Z,8.00
2023-03-12T21:47:05.521Z,6.63
2023-03-12T21:49:35.220Z,7.30
2023-03-12T21:52:04.626Z,8.30
2023-03-12T21:54:34.561Z,14.27
2023-03-12T21:57:05.475Z,12.70
2023-03-12T21:59:33.987Z,14.57
2023-03-12T22:02:01.772Z,18.98
2023-03-12T22:04:57.140Z,9.10
2023-03-12T22:07:25.033Z,17.65
2023-03-12T22:09:58.341Z,19.67
2023-03-12T22:12:26.242Z,24.20
2023-03-12T22:14:54.761Z,22.33
2023-03-12T22:17:22.674Z,22.70
2023-03-12T22:19:51.094Z,17.40
2023-03-12T22:22:20.073Z,21.27
2023-03-12T22:24:49.236Z,49.55
2023-03-12T22:27:17.251Z,33.13
2023-03-12T22:29:45.368Z,20.17
2023-03-12T22:32:13.345Z,17.95
2023-03-12T22:34:41.568Z,29.90
2023-03-12T22:37:09.481Z,13.50
2023-03-12T22:39:37.748Z,8.68
2023-03-12T22:42:05.720Z,12.23
2023-03-12T22:44:33.984Z,9.65
2023-03-12T22:47:01.917Z,9.80
2023-03-12T22:49:30.009Z,11.82
2023-03-12T22:51:57.936Z,10.48
2023-03-12T22:54:26.369Z,14.32
2023-03-12T22:56:54.436Z,8.00
2023-03-12T22:59:22.620Z,7.80
2023-03-12T23:01:50.530Z,10.18
2023-03-12T23:04:19.898Z,8.63
2023-03-12T23:06:47.937Z,7.35
2023-03-12T23:09:16.300Z,10.48
2023-03-12T23:11:44.326Z,6.72
2023-03-12T23:14:12.568Z,6.65
2023-03-12T23:16:40.517Z,7.05
2023-03-12T23:19:08.596Z,7.32
2023-03-12T23:21:36.396Z,9.57
2023-03-12T23:24:04.796Z,10.00
2023-03-12T23:26:32.636Z,7.40
2023-03-12T23:29:00.909Z,7.25
2023-03-12T23:31:30.099Z,8.13
2023-03-12T23:33:58.929Z,11.90
2023-03-12T23:36:27.004Z,9.32
2023-03-12T23:38:55.020Z,12.63
2023-03-12T23:41:25.410Z,9.85
2023-03-12T23:43:53.829Z,10.13
2023-03-12T23:46:21.775Z,9.55
2023-03-12T23:48:50.906Z,19.65
2023-03-12T23:51:23.142Z,9.75
2023-03-12T23:53:58.025Z,8.25
2023-03-12T23:56:33.564Z,7.15
2023-03-12T23:59:02.534Z,7.85
